Time;durP1;ratioP1;P1;durP2;ratioP2;P2;SDS_P1;SDS_P2;PMS_P1;PMS_P2;Temp;Humidity;BMP_temperature;BMP_pressure;BME280_temperature;BME280_humidity;BME280_pressure;Samples;Min_cycle;Max_cycle;Signal;HPM_P1;HPM_P2
2021/07/19 00:02:27;;;;;;;1.15;1.00;;;17.00;62.40;;;;;;5109114;28;20494;-56
2021/07/19 00:04:54;;;;;;;2.90;1.38;;;17.10;60.40;;;;;;5109701;28;20031;-52
2021/07/19 00:07:23;;;;;;;2.63;1.13;;;17.20;61.20;;;;;;5110486;28;20027;-50
2021/07/19 00:09:50;;;;;;;3.03;1.60;;;17.20;60.90;;;;;;5109893;28;20111;-55
2021/07/19 00:12:18;;;;;;;1.40;0.98;;;17.40;60.60;;;;;;5109842;28;20146;-56
2021/07/19 00:14:47;;;;;;;1.73;1.45;;;17.50;59.70;;;;;;5109817;28;20016;-56
2021/07/19 00:17:17;;;;;;;2.25;1.30;;;17.60;60.30;;;;;;5109297;28;20039;-56
2021/07/19 00:19:46;;;;;;;4.38;1.38;;;17.70;58.60;;;;;;5091075;28;20042;-55
2021/07/19 00:22:13;;;;;;;1.92;1.20;;;17.70;58.80;;;;;;5109543;28;20054;-53
2021/07/19 00:24:41;;;;;;;1.83;0.95;;;17.60;58.80;;;;;;5109175;28;20024;-57
2021/07/19 00:27:08;;;;;;;3.35;1.25;;;17.50;58.50;;;;;;5109236;28;20051;-53
2021/07/19 00:29:35;;;;;;;2.85;1.08;;;17.30;59.30;;;;;;5108832;28;20035;-53
2021/07/19 00:32:04;;;;;;;1.80;1.00;;;17.20;60.20;;;;;;5105325;28;20039;-54
2021/07/19 00:34:31;;;;;;;2.40;1.30;;;17.10;61.00;;;;;;5108291;28;20027;-60
2021/07/19 00:36:59;;;;;;;2.08;1.27;;;17.10;61.50;;;;;;5108939;28;20038;-55
2021/07/19 00:39:27;;;;;;;2.25;1.38;;;17.00;61.80;;;;;;5109198;28;20031;-55
2021/07/19 00:41:55;;;;;;;1.10;0.85;;;17.00;61.40;;;;;;5109139;28;20047;-56
2021/07/19 00:44:23;;;;;;;1.85;1.20;;;16.90;61.30;;;;;;5111643;28;20028;-52
2021/07/19 00:46:54;;;;;;;1.40;0.90;;;16.80;62.30;;;;;;5113411;28;20358;-57
2021/07/19 00:49:23;;;;;;;4.93;1.45;;;16.80;62.10;;;;;;5108899;28;20482;-58
2021/07/19 00:51:51;;;;;;;1.38;1.08;;;16.70;61.10;;;;;;5092767;28;20044;-56
2021/07/19 00:54:24;;;;;;;2.33;1.10;;;16.60;62.30;;;;;;5092844;28;20047;-56
2021/07/19 00:56:57;;;;;;;3.75;1.02;;;16.50;62.90;;;;;;5093421;28;20030;-53
2021/07/19 00:59:26;;;;;;;1.50;0.80;;;16.50;61.90;;;;;;5092723;28;20032;-52
2021/07/19 01:01:56;;;;;;;1.77;1.00;;;16.50;63.00;;;;;;5092968;28;20024;-54
2021/07/19 01:04:25;;;;;;;2.58;1.10;;;16.40;62.40;;;;;;5092763;28;20099;-51
2021/07/19 01:06:56;;;;;;;1.42;1.02;;;16.40;61.30;;;;;;5092531;28;20390;-57
2021/07/19 01:09:25;;;;;;;1.10;0.80;;;16.40;63.40;;;;;;5092543;28;20070;-55
2021/07/19 01:11:53;;;;;;;1.50;1.13;;;16.30;63.20;;;;;;5092365;28;20028;-55
2021/07/19 01:14:20;;;;;;;2.10;1.00;;;16.30;63.20;;;;;;5092162;28;20506;-57
2021/07/19 01:16:48;;;;;;;2.30;1.00;;;16.30;62.70;;;;;;5092125;28;20470;-53
2021/07/19 01:19:16;;;;;;;2.10;1.58;;;16.30;64.40;;;;;;5092566;28;20372;-54
2021/07/19 01:22:11;;;;;;;1.33;0.70;;;16.30;63.50;;;;;;5092197;28;20032;-56
2021/07/19 01:25:06;;;;;;;1.60;0.93;;;16.40;63.70;;;;;;5092106;28;20085;-53
2021/07/19 01:28:03;;;;;;;2.00;1.00;;;16.40;63.60;;;;;;5092182;28;20055;-54
2021/07/19 01:30:32;;;;;;;2.25;1.10;;;16.40;63.20;;;;;;5091414;28;20032;-57
2021/07/19 01:33:06;;;;;;;2.10;1.05;;;16.50;63.80;;;;;;5092087;28;20047;-52
2021/07/19 01:35:36;;;;;;;2.55;1.15;;;16.50;62.30;;;;;;5092122;28;20520;-51
2021/07/19 01:38:06;;;;;;;1.98;0.82;;;16.50;63.00;;;;;;5092134;28;20486;-49
2021/07/19 01:40:34;;;;;;;1.08;0.77;;;16.60;61.20;;;;;;5091934;28;20028;-52
2021/07/19 01:43:02;;;;;;;0.75;0.68;;;16.50;63.20;;;;;;5091816;28;20024;-52
2021/07/19 01:45:31;;;;;;;1.17;0.70;;;16.50;62.60;;;;;;5091730;28;20039;-53
2021/07/19 01:47:58;;;;;;;0.85;0.80;;;16.50;64.10;;;;;;5091446;28;20755;-53
2021/07/19 01:50:28;;;;;;;1.05;0.75;;;16.50;63.00;;;;;;5091581;28;20054;-56
2021/07/19 01:52:58;;;;;;;1.00;0.52;;;16.50;62.70;;;;;;5091645;28;20082;-50
2021/07/19 01:55:26;;;;;;;1.30;0.98;;;16.40;64.00;;;;;;5091690;28;20028;-55
2021/07/19 01:57:54;;;;;;;1.15;0.73;;;16.40;62.40;;;;;;5091690;28;20390;-53
2021/07/19 02:00:21;;;;;;;1.38;0.63;;;16.30;63.00;;;;;;5091956;28;20028;-56
2021/07/19 02:02:51;;;;;;;1.67;0.77;;;16.30;63.60;;;;;;5073078;28;20150;-58
2021/07/19 02:05:23;;;;;;;0.95;0.63;;;16.40;64.60;;;;;;5091621;28;20051;-56
2021/07/19 02:07:52;;;;;;;0.85;0.60;;;16.40;64.50;;;;;;5088854;28;20080;-55
2021/07/19 02:10:20;;;;;;;1.05;0.65;;;16.40;63.50;;;;;;5106104;28;20086;-54
2021/07/19 02:12:49;;;;;;;1.48;0.90;;;16.40;63.80;;;;;;5106545;28;20065;-54
2021/07/19 02:15:21;;;;;;;3.00;0.68;;;16.40;64.00;;;;;;5106623;28;20035;-53
2021/07/19 02:17:57;;;;;;;0.60;0.60;;;16.50;64.60;;;;;;5107092;28;20020;-55
2021/07/19 02:20:27;;;;;;;0.57;0.57;;;16.50;65.50;;;;;;5090884;28;20024;-52
2021/07/19 02:22:57;;;;;;;0.93;0.70;;;16.60;64.00;;;;;;5086701;28;20032;-55
2021/07/19 02:25:25;;;;;;;0.90;0.60;;;16.60;65.10;;;;;;5086580;28;20096;-58
2021/07/19 02:27:55;;;;;;;1.50;0.88;;;16.60;64.60;;;;;;5086319;28;20052;-54
2021/07/19 02:30:24;;;;;;;3.05;1.00;;;16.70;63.10;;;;;;5086434;28;20031;-59
2021/07/19 02:32:57;;;;;;;1.90;0.80;;;16.80;65.20;;;;;;5086156;28;20085;-57
2021/07/19 02:35:26;;;;;;;1.70;0.75;;;17.00;62.90;;;;;;5086284;28;20028;-57
2021/07/19 02:37:56;;;;;;;1.33;0.52;;;17.10;64.40;;;;;;5085885;28;20657;-57
2021/07/19 02:40:25;;;;;;;0.77;0.63;;;17.30;62.20;;;;;;5086966;28;20757;-56
2021/07/19 02:42:58;;;;;;;3.70;0.95;;;17.60;62.80;;;;;;5086417;28;20111;-55
2021/07/19 02:45:27;;;;;;;2.30;0.65;;;17.90;62.30;;;;;;5085778;28;20089;-59
2021/07/19 02:47:56;;;;;;;0.82;0.80;;;18.10;60.60;;;;;;5086102;28;20028;-55
2021/07/19 02:50:25;;;;;;;5.10;0.88;;;18.30;59.40;;;;;;5086250;28;20436;-54
2021/07/19 02:52:56;;;;;;;1.88;0.73;;;18.60;60.70;;;;;;5085293;28;20071;-55
2021/07/19 02:55:24;;;;;;;4.68;0.75;;;18.80;58.70;;;;;;5085561;28;20023;-55
2021/07/19 02:57:51;;;;;;;1.98;0.65;;;19.00;56.40;;;;;;5085851;28;20024;-56
2021/07/19 03:00:19;;;;;;;1.75;1.02;;;18.90;57.30;;;;;;5085962;28;20036;-56
2021/07/19 03:03:01;;;;;;;2.10;1.20;;;18.80;59.10;;;;;;5085524;28;20020;-57
2021/07/19 03:05:35;;;;;;;3.10;1.60;;;18.70;57.30;;;;;;5085398;28;20058;-53
2021/07/19 03:08:05;;;;;;;5.03;1.58;;;18.60;58.10;;;;;;5066360;28;20497;-57
2021/07/19 03:10:34;;;;;;;2.30;2.05;;;18.50;58.00;;;;;;5085208;28;20066;-55
2021/07/19 03:13:20;;;;;;;3.15;2.22;;;18.40;60.80;;;;;;5084371;28;20494;-56
2021/07/19 03:15:48;;;;;;;2.63;1.95;;;18.40;59.50;;;;;;5085632;28;20062;-58
2021/07/19 03:18:17;;;;;;;3.05;1.85;;;18.40;59.70;;;;;;5085363;28;20069;-55
2021/07/19 03:20:46;;;;;;;2.40;2.20;;;18.40;60.40;;;;;;5066683;28;20511;-54
2021/07/19 03:23:16;;;;;;;3.58;2.70;;;18.50;59.20;;;;;;5088110;28;20024;-56
2021/07/19 03:25:45;;;;;;;3.60;2.72;;;18.60;61.10;;;;;;5090204;28;20118;-55
2021/07/19 03:28:14;;;;;;;3.72;2.13;;;18.60;61.20;;;;;;5085187;28;20062;-59
2021/07/19 03:30:43;;;;;;;3.10;2.05;;;18.60;59.40;;;;;;5098284;28;20063;-58
2021/07/19 03:33:11;;;;;;;6.53;3.33;;;18.60;58.00;;;;;;5102207;28;20046;-52
2021/07/19 03:35:39;;;;;;;5.72;2.70;;;18.60;60.30;;;;;;5091127;28;20024;-55
2021/07/19 03:38:08;;;;;;;3.40;2.53;;;18.60;59.50;;;;;;5102468;28;20028;-53
2021/07/19 03:40:39;;;;;;;3.35;2.63;;;18.60;58.20;;;;;;5096239;28;20089;-51
2021/07/19 03:43:06;;;;;;;3.83;2.67;;;18.50;58.50;;;;;;5098933;28;20032;-57
2021/07/19 03:45:34;;;;;;;3.83;2.75;;;18.60;60.80;;;;;;5095524;28;20077;-57
2021/07/19 03:48:02;;;;;;;4.82;3.03;;;18.60;61.10;;;;;;5101601;28;20168;-57
2021/07/19 03:50:32;;;;;;;4.93;3.15;;;18.50;58.90;;;;;;5096393;28;20050;-59
2021/07/19 03:53:01;;;;;;;3.33;2.72;;;18.50;60.80;;;;;;5095642;28;20154;-61
2021/07/19 03:55:28;;;;;;;4.70;3.17;;;18.40;60.10;;;;;;5097241;28;20122;-59
2021/07/19 03:57:55;;;;;;;5.90;3.08;;;18.40;61.30;;;;;;5092232;28;20658;-57
2021/07/19 04:00:23;;;;;;;4.70;2.72;;;18.30;59.90;;;;;;5101739;28;20089;-50
2021/07/19 04:02:55;;;;;;;3.47;2.85;;;18.20;60.20;;;;;;5098013;28;20036;-55
2021/07/19 04:05:24;;;;;;;4.25;2.90;;;18.20;61.10;;;;;;5094974;28;20028;-54
2021/07/19 04:07:52;;;;;;;3.97;2.80;;;18.20;59.40;;;;;;5088979;28;20408;-53
2021/07/19 04:10:21;;;;;;;5.32;2.90;;;18.20;60.10;;;;;;5089037;28;20386;-54
2021/07/19 04:12:50;;;;;;;3.75;2.22;;;18.30;61.10;;;;;;5088477;28;20039;-56
2021/07/19 04:15:19;;;;;;;3.85;2.53;;;18.30;58.50;;;;;;5089247;28;20024;-55
2021/07/19 04:17:47;;;;;;;3.65;3.17;;;18.20;58.50;;;;;;5089082;28;20028;-51
2021/07/19 04:20:17;;;;;;;4.43;3.28;;;18.10;61.90;;;;;;5089200;28;20024;-54
2021/07/19 04:22:45;;;;;;;4.50;2.85;;;18.00;61.60;;;;;;5088913;28;20028;-52
2021/07/19 04:25:14;;;;;;;4.22;2.60;;;18.00;59.10;;;;;;5089171;28;20030;-57
2021/07/19 04:27:44;;;;;;;3.00;2.53;;;17.90;61.80;;;;;;5089203;28;20462;-56
2021/07/19 04:30:13;;;;;;;4.90;2.65;;;17.90;61.00;;;;;;5089251;28;20028;-53
2021/07/19 04:32:49;;;;;;;4.13;2.47;;;17.80;61.20;;;;;;5088308;28;20040;-51
2021/07/19 04:35:21;;;;;;;2.90;2.53;;;17.70;60.00;;;;;;5089361;28;20020;-56
2021/07/19 04:37:50;;;;;;;3.17;2.60;;;17.70;61.30;;;;;;5089094;28;20028;-54
2021/07/19 04:40:18;;;;;;;3.20;2.50;;;17.60;60.00;;;;;;5088892;28;20055;-57
2021/07/19 04:42:46;;;;;;;4.30;2.30;;;17.50;63.80;;;;;;5088777;28;20039;-52
2021/07/19 04:45:18;;;;;;;2.65;2.20;;;17.60;63.40;;;;;;5088525;28;20030;-57
2021/07/19 04:47:45;;;;;;;;;;;17.60;63.70;;;;;;5089505;28;20035;-52
2021/07/19 04:50:17;;;;;;;6.03;2.88;;;17.50;64.90;;;;;;5089178;28;19908;-52
2021/07/19 04:52:45;;;;;;;4.50;2.58;;;17.60;63.20;;;;;;5088108;28;20077;-52
2021/07/19 04:55:21;;;;;;;3.00;2.65;;;17.60;62.50;;;;;;5083245;28;20371;-53
2021/07/19 04:57:54;;;;;;;3.85;3.05;;;17.60;62.40;;;;;;5104652;28;20548;-54
2021/07/19 05:00:22;;;;;;;2.92;2.30;;;17.50;62.40;;;;;;5086121;28;20031;-53
2021/07/19 05:02:51;;;;;;;4.35;2.30;;;17.40;62.00;;;;;;5103964;28;20161;-53
2021/07/19 05:05:22;;;;;;;3.47;3.05;;;17.40;60.50;;;;;;5104826;28;20024;-52
2021/07/19 05:07:51;;;;;;;6.60;2.85;;;17.40;63.90;;;;;;5104545;28;20038;-50
2021/07/19 05:10:23;;;;;;;3.38;2.35;;;17.30;63.10;;;;;;5105351;28;20035;-56
2021/07/19 05:12:51;;;;;;;;;;;17.30;64.30;;;;;;5105450;28;20534;-53
2021/07/19 05:15:20;;;;;;;3.78;2.60;;;17.30;62.50;;;;;;5104870;28;19939;-53
2021/07/19 05:17:48;;;;;;;3.25;2.40;;;17.20;65.10;;;;;;5104825;28;20070;-52
2021/07/19 05:20:18;;;;;;;2.22;1.75;;;17.20;64.10;;;;;;5104946;28;20024;-51
2021/07/19 05:22:54;;;;;;;2.10;1.65;;;17.20;63.20;;;;;;5104617;28;20043;-50
2021/07/19 05:25:26;;;;;;;4.60;2.20;;;17.10;64.20;;;;;;5104000;28;20061;-56
2021/07/19 05:27:58;;;;;;;;;;;17.10;66.00;;;;;;5103981;28;20055;-50
2021/07/19 05:30:29;;;;;;;3.33;2.15;;;17.00;61.80;;;;;;5106446;28;19908;-55
2021/07/19 05:32:57;;;;;;;1.83;1.65;;;17.00;65.60;;;;;;5107939;28;20108;-54
2021/07/19 05:35:24;;;;;;;6.82;2.08;;;17.00;62.80;;;;;;5089623;28;20034;-53
2021/07/19 05:37:52;;;;;;;3.08;2.13;;;17.00;63.40;;;;;;5108012;28;20045;-56
2021/07/19 05:40:29;;;;;;;2.78;2.05;;;17.00;62.60;;;;;;5107607;28;20553;-56
2021/07/19 05:42:56;;;;;;;2.67;1.83;;;16.90;63.50;;;;;;5108608;28;20080;-54
2021/07/19 05:45:24;;;;;;;2.35;1.70;;;16.90;63.70;;;;;;5107791;28;20050;-57
2021/07/19 05:47:51;;;;;;;1.83;1.65;;;16.90;66.20;;;;;;5108368;28;20024;-56
2021/07/19 05:50:19;;;;;;;2.50;2.00;;;16.80;64.90;;;;;;5108605;28;20050;-58
2021/07/19 05:52:47;;;;;;;3.05;2.15;;;16.80;65.20;;;;;;5107188;28;20109;-57
2021/07/19 05:55:15;;;;;;;3.13;2.05;;;16.80;65.90;;;;;;5107547;28;20036;-57
2021/07/19 05:57:44;;;;;;;3.70;1.60;;;16.80;66.10;;;;;;5108049;28;20512;-55
2021/07/19 06:00:16;;;;;;;1.98;1.70;;;16.80;65.00;;;;;;5091077;28;20035;-55
2021/07/19 06:02:44;;;;;;;5.90;1.80;;;16.80;66.10;;;;;;5108543;28;20020;-59
2021/07/19 06:05:13;;;;;;;1.55;1.45;;;16.70;66.00;;;;;;5088704;28;20104;-54
2021/07/19 06:07:41;;;;;;;2.42;1.50;;;16.70;66.40;;;;;;5106772;28;20463;-55
2021/07/19 06:10:11;;;;;;;3.20;2.17;;;16.70;66.00;;;;;;5106728;28;20063;-58
2021/07/19 06:12:40;;;;;;;4.57;2.10;;;16.70;67.10;;;;;;5106813;28;20830;-59
2021/07/19 06:15:10;;;;;;;1.63;1.50;;;16.70;66.50;;;;;;5106470;28;20043;-58
2021/07/19 06:17:38;;;;;;;2.45;1.52;;;16.60;65.80;;;;;;5106798;28;20032;-58
2021/07/19 06:20:13;;;;;;;1.92;1.60;;;16.60;66.00;;;;;;5106921;28;20024;-57
2021/07/19 06:22:42;;;;;;;4.78;2.15;;;16.60;67.00;;;;;;5106403;28;20718;-56
2021/07/19 06:25:12;;;;;;;2.05;1.50;;;16.60;66.20;;;;;;5088611;28;20035;-56
2021/07/19 06:27:40;;;;;;;2.17;1.45;;;16.60;66.70;;;;;;5106405;28;20054;-53
2021/07/19 06:30:09;;;;;;;1.73;1.60;;;16.50;66.50;;;;;;5088153;28;20036;-56
2021/07/19 06:32:37;;;;;;;2.70;1.60;;;16.50;66.80;;;;;;5106159;28;20049;-58
2021/07/19 06:35:06;;;;;;;6.97;2.03;;;16.50;66.90;;;;;;5106689;28;20046;-57
2021/07/19 06:37:36;;;;;;;3.58;1.85;;;16.50;64.10;;;;;;5106558;28;20032;-58
2021/07/19 06:40:06;;;;;;;1.85;1.63;;;16.50;66.50;;;;;;5106334;28;20039;-57
2021/07/19 06:42:33;;;;;;;2.50;1.60;;;16.50;65.20;;;;;;5105434;28;20119;-58
2021/07/19 06:45:01;;;;;;;2.65;1.90;;;16.40;66.50;;;;;;5106404;28;20122;-57
2021/07/19 06:47:28;;;;;;;2.50;2.08;;;16.40;67.50;;;;;;5106620;28;20022;-58
2021/07/19 06:49:59;;;;;;;2.28;1.70;;;16.40;67.60;;;;;;5106404;28;20490;-56
2021/07/19 06:52:34;;;;;;;2.47;1.88;;;16.40;68.30;;;;;;5107836;28;20832;-57
2021/07/19 06:55:02;;;;;;;1.70;1.60;;;16.40;68.50;;;;;;5088104;28;20092;-59
2021/07/19 06:57:29;;;;;;;4.22;2.40;;;16.40;68.10;;;;;;5106021;28;20166;-55
2021/07/19 06:59:57;;;;;;;2.65;1.80;;;16.30;68.20;;;;;;5106469;28;20158;-60
2021/07/19 07:02:24;;;;;;;2.80;1.77;;;16.30;68.60;;;;;;5106613;28;20035;-58
2021/07/19 07:04:52;;;;;;;4.20;1.90;;;16.40;68.50;;;;;;5106299;28;20035;-55
2021/07/19 07:07:19;;;;;;;3.10;1.52;;;16.30;68.40;;;;;;5103056;28;20489;-57
2021/07/19 07:09:48;;;;;;;2.55;1.88;;;16.30;68.30;;;;;;5105483;28;20054;-56
2021/07/19 07:12:15;;;;;;;3.17;1.65;;;16.30;68.50;;;;;;5105425;28;20534;-58
2021/07/19 07:14:43;;;;;;;2.67;1.60;;;16.30;68.60;;;;;;5106104;28;20042;-58
2021/07/19 07:17:10;;;;;;;2.97;1.75;;;16.30;68.70;;;;;;5105791;28;20035;-58
2021/07/19 07:19:38;;;;;;;2.75;1.90;;;16.20;68.30;;;;;;5106346;28;20042;-61
2021/07/19 07:22:05;;;;;;;2.03;1.77;;;16.20;68.60;;;;;;5106328;28;20084;-56
2021/07/19 07:24:32;;;;;;;3.03;1.30;;;16.20;68.60;;;;;;5105086;28;20461;-58
2021/07/19 07:26:59;;;;;;;1.90;1.70;;;16.20;68.60;;;;;;5105164;28;20059;-56
2021/07/19 07:29:27;;;;;;;2.65;1.98;;;16.20;68.60;;;;;;5105605;28;20583;-59
2021/07/19 07:31:54;;;;;;;2.38;1.67;;;16.20;68.30;;;;;;5102486;28;20035;-56
2021/07/19 07:34:22;;;;;;;3.35;2.00;;;16.20;68.10;;;;;;5090057;28;20491;-57
2021/07/19 07:36:49;;;;;;;2.58;2.03;;;16.20;68.50;;;;;;5088516;28;20031;-56
2021/07/19 07:39:16;;;;;;;3.20;2.35;;;16.20;67.90;;;;;;5099622;28;20024;-56
2021/07/19 07:41:44;;;;;;;2.60;2.20;;;16.20;68.10;;;;;;5096867;28;20027;-55
2021/07/19 07:44:11;;;;;;;3.05;1.80;;;16.20;68.60;;;;;;5097009;28;20032;-59
2021/07/19 07:46:41;;;;;;;4.20;2.42;;;16.20;68.00;;;;;;5095350;28;20028;-59
2021/07/19 07:49:09;;;;;;;3.17;2.20;;;16.20;69.00;;;;;;5099513;28;21842;-59
2021/07/19 07:51:36;;;;;;;5.13;2.30;;;16.20;69.30;;;;;;5098881;28;20110;-57
2021/07/19 07:54:04;;;;;;;3.47;2.45;;;16.20;69.60;;;;;;5097686;28;20043;-54
2021/07/19 07:56:31;;;;;;;2.88;2.58;;;16.20;69.40;;;;;;5100637;28;21375;-58
2021/07/19 07:58:59;;;;;;;3.20;2.33;;;16.20;69.60;;;;;;5076982;28;20501;-52
2021/07/19 08:01:26;;;;;;;2.95;2.38;;;16.10;69.50;;;;;;5094590;28;20051;-56
2021/07/19 08:03:53;;;;;;;4.05;2.63;;;16.20;68.60;;;;;;5097132;28;20024;-56
2021/07/19 08:06:21;;;;;;;3.58;2.65;;;16.20;69.30;;;;;;5093583;28;20438;-52
2021/07/19 08:08:48;;;;;;;6.25;2.65;;;16.20;69.50;;;;;;5095444;28;20154;-49
2021/07/19 08:11:16;;;;;;;3.13;2.40;;;16.20;69.20;;;;;;5100491;28;20445;-50
2021/07/19 08:13:43;;;;;;;3.28;2.95;;;16.10;68.70;;;;;;5079615;28;20371;-54
2021/07/19 08:16:11;;;;;;;3.80;2.75;;;16.10;68.30;;;;;;5092840;28;20386;-53
2021/07/19 08:18:39;;;;;;;3.67;2.88;;;16.10;69.40;;;;;;5096397;28;20040;-59
2021/07/19 08:21:06;;;;;;;4.20;2.92;;;16.10;69.50;;;;;;5097454;28;20122;-58
2021/07/19 08:23:34;;;;;;;9.07;2.85;;;16.10;69.30;;;;;;5099327;28;20486;-51
2021/07/19 08:26:01;;;;;;;2.63;2.42;;;16.10;69.40;;;;;;5098368;28;20036;-55
2021/07/19 08:28:28;;;;;;;3.45;2.60;;;16.10;69.50;;;;;;5097405;28;20051;-52
2021/07/19 08:30:56;;;;;;;2.95;2.47;;;16.10;69.10;;;;;;5099350;28;20056;-55
2021/07/19 08:33:23;;;;;;;3.47;2.10;;;16.00;69.90;;;;;;5094203;28;20139;-57
2021/07/19 08:35:51;;;;;;;2.83;2.28;;;16.10;68.50;;;;;;5097849;28;20043;-51
2021/07/19 08:38:18;;;;;;;3.90;2.65;;;16.00;69.30;;;;;;5100965;28;20390;-58
2021/07/19 08:40:48;;;;;;;3.45;2.85;;;16.00;69.70;;;;;;5103553;28;20028;-55
2021/07/19 08:43:15;;;;;;;3.38;2.72;;;16.00;69.70;;;;;;5095283;28;20106;-54
2021/07/19 08:45:43;;;;;;;4.88;2.80;;;16.00;69.70;;;;;;5091199;28;20119;-58
2021/07/19 08:48:10;;;;;;;3.65;2.70;;;16.00;69.80;;;;;;5097462;28;20097;-53
2021/07/19 08:50:38;;;;;;;2.90;2.53;;;16.00;70.10;;;;;;5097320;28;20035;-54
2021/07/19 08:53:06;;;;;;;5.15;3.03;;;16.00;70.10;;;;;;5095877;28;20040;-58
2021/07/19 08:55:34;;;;;;;3.83;2.70;;;16.00;70.00;;;;;;5095891;28;20031;-54
2021/07/19 08:58:05;;;;;;;3.70;2.78;;;15.90;70.10;;;;;;5094199;28;20028;-59
2021/07/19 09:00:32;;;;;;;4.72;3.08;;;16.00;70.00;;;;;;5100800;28;20024;-57
2021/07/19 09:03:00;;;;;;;5.15;3.05;;;16.00;70.30;;;;;;5095981;28;20028;-57
2021/07/19 09:05:28;;;;;;;3.72;2.80;;;15.90;70.30;;;;;;5099082;28;20034;-57
2021/07/19 09:07:56;;;;;;;4.20;2.92;;;15.90;70.10;;;;;;5102302;28;20043;-53
2021/07/19 09:10:30;;;;;;;3.80;3.35;;;15.90;69.90;;;;;;5084622;28;20028;-56
2021/07/19 09:13:01;;;;;;;4.95;3.17;;;15.90;70.00;;;;;;5082851;28;20073;-52
2021/07/19 09:15:31;;;;;;;4.43;3.22;;;15.90;70.10;;;;;;5095814;28;20054;-55
2021/07/19 09:17:59;;;;;;;3.15;2.80;;;15.90;70.00;;;;;;5103850;28;20046;-55
2021/07/19 09:20:42;;;;;;;3.40;2.85;;;15.80;70.10;;;;;;5105379;28;20085;-56
2021/07/19 09:23:12;;;;;;;3.50;2.80;;;15.80;70.60;;;;;;5106311;28;20039;-57
2021/07/19 09:25:40;;;;;;;4.53;3.00;;;15.80;70.60;;;;;;5101516;28;20504;-55
2021/07/19 09:28:12;;;;;;;3.55;2.85;;;15.80;70.20;;;;;;5109500;28;20139;-54
2021/07/19 09:30:45;;;;;;;5.05;3.13;;;15.80;70.10;;;;;;5108468;28;20386;-57
2021/07/19 09:33:22;;;;;;;4.25;3.17;;;15.80;70.20;;;;;;5109205;28;20500;-52
2021/07/19 09:35:52;;;;;;;3.95;3.10;;;15.70;70.10;;;;;;5099764;28;20063;-56
2021/07/19 09:38:20;;;;;;;4.18;3.30;;;15.70;70.30;;;;;;5097585;28;20521;-57
2021/07/19 09:40:53;;;;;;;5.22;3.17;;;15.70;69.90;;;;;;5098214;28;20483;-57
2021/07/19 09:43:23;;;;;;;3.80;2.85;;;15.70;70.20;;;;;;5103951;28;20035;-61
2021/07/19 09:46:09;;;;;;;4.03;3.22;;;15.60;69.70;;;;;;5112810;28;20032;-61
2021/07/19 09:48:38;;;;;;;4.32;2.47;;;15.60;70.00;;;;;;5091732;28;20039;-55
2021/07/19 09:51:06;;;;;;;3.80;2.70;;;15.60;70.30;;;;;;5097449;28;20051;-58
2021/07/19 09:53:43;;;;;;;3.25;2.75;;;15.60;70.50;;;;;;5100134;28;20040;-58
2021/07/19 09:56:21;;;;;;;5.40;3.22;;;15.60;70.40;;;;;;5101197;28;20452;-59
2021/07/19 09:59:03;;;;;;;3.95;3.20;;;15.60;70.40;;;;;;5100179;28;20053;-59
2021/07/19 10:01:34;;;;;;;3.40;2.47;;;15.60;70.40;;;;;;5101736;28;20154;-58
2021/07/19 10:04:14;;;;;;;5.72;3.03;;;15.60;70.40;;;;;;5098474;28;20036;-58
2021/07/19 10:06:45;;;;;;;5.40;3.70;;;15.50;70.10;;;;;;5101251;28;20069;-55
2021/07/19 10:09:17;;;;;;;4.47;2.78;;;15.60;70.30;;;;;;5101469;28;20045;-54
2021/07/19 10:11:49;;;;;;;5.25;3.13;;;15.50;70.40;;;;;;5098777;28;20063;-53
2021/07/19 10:14:35;;;;;;;4.28;2.90;;;15.50;70.20;;;;;;5097849;28;20092;-58
2021/07/19 10:17:06;;;;;;;4.47;2.92;;;15.50;70.50;;;;;;5098420;28;20040;-57
2021/07/19 10:19:35;;;;;;;5.13;2.97;;;15.50;70.50;;;;;;5101494;28;20458;-55
2021/07/19 10:22:02;;;;;;;4.45;3.13;;;15.50;70.50;;;;;;5100535;28;20024;-57
2021/07/19 10:24:31;;;;;;;4.30;2.92;;;15.50;70.40;;;;;;5105050;28;20028;-56
2021/07/19 10:26:58;;;;;;;4.30;3.15;;;15.50;70.50;;;;;;5100272;28;20023;-52
2021/07/19 10:29:26;;;;;;;5.45;3.22;;;15.40;70.30;;;;;;5093774;28;20034;-55
2021/07/19 10:31:54;;;;;;;3.30;2.78;;;15.40;70.40;;;;;;5100782;28;20036;-54
2021/07/19 10:34:22;;;;;;;3.45;2.83;;;15.50;70.50;;;;;;5105206;28;20035;-57
2021/07/19 10:37:01;;;;;;;4.43;3.05;;;15.40;70.20;;;;;;5100758;28;20032;-56
2021/07/19 10:39:39;;;;;;;4.60;2.65;;;15.40;70.40;;;;;;5098862;28;20081;-58
2021/07/19 10:42:10;;;;;;;3.38;3.08;;;15.40;70.40;;;;;;5102403;28;20110;-59
2021/07/19 10:44:40;;;;;;;3.55;2.85;;;15.40;70.50;;;;;;5103737;28;20118;-59
2021/07/19 10:47:22;;;;;;;3.45;2.90;;;15.40;70.40;;;;;;5108800;28;20054;-57
2021/07/19 10:50:06;;;;;;;3.17;2.75;;;15.40;70.50;;;;;;5103176;28;20786;-59
2021/07/19 10:52:40;;;;;;;4.03;3.20;;;15.40;70.40;;;;;;5097359;28;20044;-58
2021/07/19 10:55:10;;;;;;;3.67;2.78;;;15.40;70.30;;;;;;5105072;28;20034;-59
2021/07/19 10:57:46;;;;;;;4.82;2.88;;;15.30;70.20;;;;;;5099255;28;20478;-58
2021/07/19 11:00:20;;;;;;;3.88;2.67;;;15.40;70.50;;;;;;5078844;28;20078;-58
2021/07/19 11:02:47;;;;;;;4.70;2.70;;;15.30;70.40;;;;;;5102307;28;20044;-58
2021/07/19 11:05:15;;;;;;;4.40;3.40;;;15.30;70.40;;;;;;5098918;28;20123;-57
2021/07/19 11:07:45;;;;;;;3.67;3.22;;;15.30;70.50;;;;;;5097285;28;20032;-57
2021/07/19 11:10:23;;;;;;;3.65;3.10;;;15.30;70.40;;;;;;5095982;28;20024;-57
2021/07/19 11:12:57;;;;;;;3.83;2.80;;;15.30;70.40;;;;;;5096970;28;20085;-56
2021/07/19 11:15:37;;;;;;;2.97;2.42;;;15.30;70.10;;;;;;5098770;28;20095;-59
2021/07/19 11:18:19;;;;;;;3.60;2.92;;;15.30;70.30;;;;;;5098859;28;20028;-60
2021/07/19 11:20:48;;;;;;;3.33;2.78;;;15.20;70.30;;;;;;5079780;28;20466;-48
2021/07/19 11:23:26;;;;;;;4.30;3.17;;;15.20;70.30;;;;;;5100502;28;20671;-56
2021/07/19 11:25:53;;;;;;;4.00;2.50;;;15.20;70.30;;;;;;5100198;28;20039;-57
2021/07/19 11:28:25;;;;;;;3.67;2.90;;;15.20;70.30;;;;;;5098420;28;20079;-59
2021/07/19 11:31:08;;;;;;;4.03;3.03;;;15.20;70.40;;;;;;5096895;28;20244;-60
2021/07/19 11:33:49;;;;;;;4.55;3.28;;;15.20;70.40;;;;;;5098521;28;20419;-57
2021/07/19 11:36:26;;;;;;;3.55;2.65;;;15.20;70.40;;;;;;5105181;28;20061;-54
2021/07/19 11:38:56;;;;;;;4.20;2.83;;;15.10;70.50;;;;;;5099094;28;20028;-55
2021/07/19 11:41:34;;;;;;;4.47;3.13;;;15.10;71.00;;;;;;5101410;28;20102;-59
2021/07/19 11:44:04;;;;;;;3.88;2.97;;;15.10;70.30;;;;;;5104657;28;20067;-57
2021/07/19 11:46:40;;;;;;;5.38;3.05;;;15.10;70.30;;;;;;5102936;28;20024;-57
2021/07/19 11:49:11;;;;;;;4.75;3.10;;;15.10;70.30;;;;;;5093605;28;20030;-59
2021/07/19 11:51:43;;;;;;;4.75;3.20;;;15.10;70.40;;;;;;5098162;28;20019;-58
2021/07/19 11:54:15;;;;;;;4.30;2.92;;;15.10;70.50;;;;;;5097084;28;20414;-56
2021/07/19 11:56:54;;;;;;;4.60;3.00;;;15.10;70.40;;;;;;5096628;28;20031;-53
2021/07/19 11:59:26;;;;;;;4.25;2.95;;;15.00;70.40;;;;;;5097947;28;20060;-59
2021/07/19 12:02:03;;;;;;;4.57;3.25;;;15.10;70.40;;;;;;5096794;28;20037;-53
2021/07/19 12:04:44;;;;;;;4.25;3.25;;;15.00;70.40;;;;;;5101545;28;20040;-58
2021/07/19 12:07:13;;;;;;;4.05;3.00;;;15.00;70.60;;;;;;5097916;28;20055;-54
2021/07/19 12:09:41;;;;;;;3.45;3.10;;;15.00;70.60;;;;;;5097525;28;20452;-58
2021/07/19 12:12:09;;;;;;;3.35;2.75;;;15.00;70.70;;;;;;5097554;28;20071;-56
2021/07/19 12:14:37;;;;;;;4.20;3.22;;;15.00;70.60;;;;;;5095213;28;20100;-57
2021/07/19 12:17:05;;;;;;;3.70;2.95;;;15.00;70.80;;;;;;5099592;28;20165;-53
2021/07/19 12:19:32;;;;;;;4.03;2.58;;;14.90;70.50;;;;;;5094211;28;20038;-53
2021/07/19 12:22:02;;;;;;;2.67;2.45;;;15.00;70.50;;;;;;5095287;28;20043;-56
2021/07/19 12:24:30;;;;;;;3.88;2.92;;;14.90;70.50;;;;;;5093762;28;20020;-56
2021/07/19 12:27:04;;;;;;;4.97;2.63;;;14.90;70.70;;;;;;5095914;28;20066;-56
2021/07/19 12:29:41;;;;;;;4.55;2.67;;;14.90;70.50;;;;;;5099079;28;20044;-52
2021/07/19 12:32:11;;;;;;;3.55;2.97;;;14.90;70.60;;;;;;5097311;28;20043;-57
2021/07/19 12:34:42;;;;;;;3.80;2.70;;;14.90;70.60;;;;;;5098563;28;20035;-53
2021/07/19 12:37:12;;;;;;;3.78;2.70;;;14.90;70.50;;;;;;5099452;28;21219;-55
2021/07/19 12:39:54;;;;;;;3.30;2.60;;;14.90;70.60;;;;;;5097070;28;20032;-55
2021/07/19 12:42:32;;;;;;;3.28;2.45;;;14.80;70.60;;;;;;5101799;28;20128;-52
2021/07/19 12:45:05;;;;;;;3.40;2.83;;;14.80;70.70;;;;;;5101993;28;20123;-56
2021/07/19 12:47:34;;;;;;;4.97;2.88;;;14.80;70.70;;;;;;5086465;28;20035;-55
2021/07/19 12:50:06;;;;;;;2.97;2.67;;;14.80;70.70;;;;;;5102102;28;20028;-55
2021/07/19 12:52:34;;;;;;;3.03;2.45;;;14.80;70.40;;;;;;5097549;28;20040;-50
2021/07/19 12:55:05;;;;;;;3.35;2.88;;;14.80;70.70;;;;;;5073953;28;20031;-57
2021/07/19 12:57:35;;;;;;;4.70;3.17;;;14.80;70.70;;;;;;5108589;28;20039;-55
2021/07/19 13:00:14;;;;;;;3.40;2.40;;;14.80;70.80;;;;;;5108907;28;20042;-55
2021/07/19 13:02:43;;;;;;;3.88;3.00;;;14.80;70.80;;;;;;5109564;28;20031;-54
2021/07/19 13:05:16;;;;;;;7.10;2.72;;;14.80;70.90;;;;;;5108698;28;20054;-53